createdAt,value
2023-03-30T00:02:10.883Z,6.30
2023-03-30T00:04:43.090Z,6.30
2023-03-30T00:07:12.922Z,6.30
2023-03-30T00:09:46.503Z,6.20
2023-03-30T00:12:20.595Z,6.20
2023-03-30T00:14:50.337Z,6.20
2023-03-30T00:17:18.914Z,6.20
2023-03-30T00:19:47.919Z,6.20
2023-03-30T00:22:16.198Z,6.20
2023-03-30T00:24:46.926Z,6.20
2023-03-30T00:27:15.208Z,6.20
2023-03-30T00:29:47.018Z,6.20
2023-03-30T00:32:15.247Z,6.20
2023-03-30T00:34:44.934Z,6.20
2023-03-30T00:37:13.172Z,6.20
2023-03-30T00:39:42.023Z,6.20
2023-03-30T00:42:17.956Z,6.20
2023-03-30T00:45:23.345Z,6.20
2023-03-30T00:47:57.997Z,6.20
2023-03-30T00:50:30.586Z,6.20
2023-03-30T00:53:01.923Z,6.10
2023-03-30T00:55:33.219Z,6.10
2023-03-30T00:58:05.565Z,6.10
2023-03-30T01:00:34.529Z,6.10
2023-03-30T01:03:07.034Z,6.20
2023-03-30T01:05:37.921Z,6.20
2023-03-30T01:08:13.962Z,6.20
2023-03-30T01:10:44.668Z,6.20
2023-03-30T01:13:15.727Z,6.10
2023-03-30T01:16:00.117Z,6.20
2023-03-30T01:18:38.588Z,6.10
2023-03-30T01:21:45.963Z,6.10
2023-03-30T01:24:53.507Z,6.20
2023-03-30T01:27:55.961Z,6.10
2023-03-30T01:30:49.754Z,6.20
2023-03-30T01:33:48.939Z,6.10
2023-03-30T01:36:45.669Z,6.10
2023-03-30T01:39:33.980Z,6.10
2023-03-30T01:42:12.907Z,6.10
2023-03-30T01:44:48.918Z,6.10
2023-03-30T01:47:21.061Z,6.10
2023-03-30T01:49:57.985Z,6.20
2023-03-30T01:52:31.788Z,6.10
2023-03-30T01:55:09.969Z,6.10
2023-03-30T01:57:47.112Z,6.10
2023-03-30T02:00:20.966Z,6.10
2023-03-30T02:02:58.067Z,6.10
2023-03-30T02:05:29.169Z,6.10
2023-03-30T02:08:06.616Z,6.10
2023-03-30T02:10:41.499Z,6.10
2023-03-30T02:13:10.409Z,6.10
2023-03-30T02:15:42.644Z,6.10
2023-03-30T02:18:11.957Z,6.10
2023-03-30T02:20:40.957Z,6.10
2023-03-30T02:23:10.242Z,6.10
2023-03-30T02:25:41.968Z,6.10
2023-03-30T02:28:11.020Z,6.10
2023-03-30T02:30:48.041Z,6.10
2023-03-30T02:33:24.150Z,6.00
2023-03-30T02:39:22.075Z,6.00
2023-03-30T02:42:19.968Z,6.00
2023-03-30T02:44:58.064Z,6.00
2023-03-30T02:47:38.041Z,6.00
2023-03-30T02:50:11.244Z,6.00
2023-03-30T02:52:52.987Z,6.00
2023-03-30T02:55:30.320Z,5.90
2023-03-30T02:58:25.369Z,5.90
2023-03-30T03:01:05.146Z,6.00
2023-03-30T03:03:49.040Z,6.00
2023-03-30T03:06:20.488Z,6.00
2023-03-30T03:08:56.826Z,6.00
2023-03-30T03:11:32.107Z,6.00
2023-03-30T03:14:03.964Z,6.00
2023-03-30T03:16:34.756Z,6.00
2023-03-30T03:19:25.133Z,6.00
2023-03-30T03:21:53.978Z,6.00
2023-03-30T03:24:22.980Z,6.00
2023-03-30T03:27:09.966Z,6.00
2023-03-30T03:30:03.974Z,6.00
2023-03-30T03:32:38.086Z,6.00
2023-03-30T03:35:07.377Z,6.00
2023-03-30T03:37:36.315Z,6.00
2023-03-30T03:40:09.508Z,6.00
2023-03-30T03:42:37.765Z,6.00
2023-03-30T03:45:17.323Z,6.00
2023-03-30T03:47:54.911Z,6.00
2023-03-30T03:50:34.507Z,6.00
2023-03-30T03:53:02.681Z,6.00
2023-03-30T03:55:34.985Z,6.00
2023-03-30T03:58:04.132Z,6.00
2023-03-30T04:00:34.801Z,6.00
2023-03-30T04:03:06.049Z,6.00
2023-03-30T04:05:37.137Z,6.00
2023-03-30T04:08:08.536Z,6.00
2023-03-30T04:10:36.756Z,6.00
2023-03-30T04:13:26.196Z,6.00
2023-03-30T04:16:14.114Z,5.90
2023-03-30T04:19:00.981Z,5.90
2023-03-30T04:21:51.295Z,5.90
2023-03-30T04:24:45.852Z,5.90
2023-03-30T04:27:42.821Z,5.90
2023-03-30T04:30:30.982Z,5.90
2023-03-30T04:33:23.395Z,5.90
2023-03-30T04:36:17.825Z,5.90
2023-03-30T04:38:59.893Z,5.90
2023-03-30T04:41:47.295Z,5.90
2023-03-30T04:44:28.935Z,5.90
2023-03-30T04:47:18.233Z,5.90
2023-03-30T04:50:10.839Z,6.00
2023-03-30T04:52:58.036Z,6.00
2023-03-30T04:55:50.290Z,6.10
2023-03-30T04:58:37.165Z,6.10
2023-03-30T05:01:24.703Z,6.10
2023-03-30T05:04:17.037Z,6.10
2023-03-30T05:07:25.265Z,6.20
2023-03-30T05:10:12.197Z,6.20
2023-03-30T05:13:09.593Z,6.20
2023-03-30T05:15:47.106Z,6.30
2023-03-30T05:18:36.010Z,6.30
2023-03-30T05:21:23.367Z,6.30
2023-03-30T05:24:10.436Z,6.30
2023-03-30T05:27:05.176Z,6.40
2023-03-30T05:29:57.062Z,6.40
2023-03-30T05:32:25.295Z,6.40
2023-03-30T05:35:13.028Z,6.50
2023-03-30T05:38:14.692Z,6.50
2023-03-30T05:40:44.963Z,6.50
2023-03-30T05:43:24.091Z,6.50
2023-03-30T05:46:21.526Z,6.50
2023-03-30T05:48:51.053Z,6.50
2023-03-30T05:51:42.305Z,6.60
2023-03-30T05:54:20.859Z,6.60
2023-03-30T05:56:59.056Z,6.70
2023-03-30T05:59:31.057Z,6.70
2023-03-30T06:02:08.473Z,6.80
2023-03-30T06:04:39.204Z,6.90
2023-03-30T06:07:07.931Z,6.90
2023-03-30T06:09:37.086Z,7.00
2023-03-30T06:12:13.668Z,7.10
2023-03-30T06:14:43.080Z,7.10
2023-03-30T06:17:33.838Z,7.10
2023-03-30T06:20:08.455Z,7.10
2023-03-30T06:22:36.823Z,7.20
2023-03-30T06:25:13.676Z,7.20
2023-03-30T06:27:45.075Z,7.20
2023-03-30T06:30:17.401Z,7.20
2023-03-30T06:32:49.917Z,7.20
2023-03-30T06:35:27.461Z,7.30
2023-03-30T06:37:56.717Z,7.30
2023-03-30T06:40:25.337Z,7.40
2023-03-30T06:42:57.078Z,7.40
2023-03-30T06:45:28.457Z,7.60
2023-03-30T06:47:57.051Z,7.60
2023-03-30T06:50:26.188Z,7.70
2023-03-30T06:53:05.899Z,7.80
2023-03-30T06:55:42.760Z,7.80
2023-03-30T06:58:16.772Z,7.90
2023-03-30T07:00:45.203Z,8.00
2023-03-30T07:03:31.941Z,8.00
2023-03-30T07:06:30.853Z,8.00
2023-03-30T07:08:59.100Z,8.10
2023-03-30T07:11:28.401Z,8.20
2023-03-30T07:14:01.201Z,8.30
2023-03-30T07:16:31.788Z,8.30
2023-03-30T07:19:00.099Z,8.30
2023-03-30T07:21:28.423Z,8.30
2023-03-30T07:23:57.080Z,8.30
2023-03-30T07:26:33.019Z,8.30
2023-03-30T07:29:09.721Z,8.30
2023-03-30T07:31:43.672Z,8.30
2023-03-30T07:34:14.090Z,8.30
2023-03-30T07:36:49.060Z,8.40
2023-03-30T07:39:18.679Z,8.50
2023-03-30T07:41:48.967Z,8.50
2023-03-30T07:44:18.695Z,8.50
2023-03-30T07:46:50.408Z,8.50
2023-03-30T07:49:24.429Z,8.50
2023-03-30T07:51:58.426Z,8.40
2023-03-30T07:54:38.386Z,8.40
2023-03-30T07:57:14.168Z,8.40
2023-03-30T07:59:43.911Z,8.40
2023-03-30T08:02:23.666Z,8.40
2023-03-30T08:04:54.831Z,8.40
2023-03-30T08:07:31.085Z,8.40
2023-03-30T08:10:10.165Z,8.50
2023-03-30T08:12:39.094Z,8.60
2023-03-30T08:15:10.410Z,8.60
2023-03-30T08:17:39.142Z,8.70
2023-03-30T08:20:11.647Z,8.80
2023-03-30T08:22:40.141Z,8.90
2023-03-30T08:25:09.374Z,9.00
2023-03-30T08:27:40.911Z,9.00
2023-03-30T08:30:13.387Z,9.10
2023-03-30T08:32:41.598Z,9.10
2023-03-30T08:35:14.408Z,9.20
2023-03-30T08:37:42.685Z,9.20
2023-03-30T08:40:12.927Z,9.30
2023-03-30T08:42:57.503Z,9.30
2023-03-30T08:45:37.240Z,9.30
2023-03-30T08:48:10.485Z,9.30
2023-03-30T08:50:38.910Z,9.30
2023-03-30T08:53:09.252Z,9.30
2023-03-30T08:55:46.427Z,9.30
2023-03-30T08:58:26.205Z,9.30
2023-03-30T09:01:01.155Z,9.30
2023-03-30T09:03:37.177Z,9.30
2023-03-30T09:06:11.190Z,9.40
2023-03-30T09:08:42.141Z,9.40
2023-03-30T09:11:16.065Z,9.50
2023-03-30T09:13:49.418Z,9.50
2023-03-30T09:16:23.738Z,9.50
2023-03-30T09:18:57.375Z,9.50
2023-03-30T09:21:32.116Z,9.50
2023-03-30T09:24:07.440Z,9.50
2023-03-30T09:26:45.972Z,9.50
2023-03-30T09:29:19.990Z,9.50
2023-03-30T09:31:55.761Z,9.50
2023-03-30T09:34:29.159Z,9.50
2023-03-30T09:36:59.005Z,9.60
2023-03-30T09:39:32.282Z,9.60
2023-03-30T09:42:16.394Z,9.70
2023-03-30T09:44:48.883Z,9.70
2023-03-30T09:47:26.526Z,9.70
2023-03-30T09:49:59.247Z,9.70
2023-03-30T09:52:33.173Z,9.80
2023-03-30T09:55:19.246Z,9.90
2023-03-30T09:57:51.014Z,9.90
2023-03-30T10:00:27.657Z,10.10
2023-03-30T10:02:59.249Z,10.20
2023-03-30T10:05:29.172Z,10.30
2023-03-30T10:07:59.852Z,10.40
2023-03-30T10:10:36.295Z,10.60
2023-03-30T10:13:08.182Z,10.80
2023-03-30T10:15:42.393Z,10.90
2023-03-30T10:18:25.189Z,11.00
2023-03-30T10:20:55.838Z,11.00
2023-03-30T10:23:33.300Z,11.10
2023-03-30T10:26:04.001Z,11.20
2023-03-30T10:28:36.415Z,11.30
2023-03-30T10:31:09.628Z,11.50
2023-03-30T10:33:43.734Z,11.60
2023-03-30T10:36:15.210Z,11.70
2023-03-30T10:38:44.485Z,11.80
2023-03-30T10:41:17.228Z,12.00
2023-03-30T10:43:47.167Z,12.20
2023-03-30T10:46:20.489Z,12.40
2023-03-30T10:49:09.934Z,12.60
2023-03-30T10:51:49.658Z,12.80
2023-03-30T10:54:24.462Z,13.00
2023-03-30T10:56:55.661Z,13.10
2023-03-30T10:59:45.181Z,13.20
2023-03-30T11:02:57.720Z,13.20
2023-03-30T11:05:33.126Z,13.40
2023-03-30T11:08:05.116Z,13.50
2023-03-30T11:10:37.031Z,13.60
2023-03-30T11:13:08.773Z,13.70
2023-03-30T11:15:43.198Z,13.80
2023-03-30T11:18:18.161Z,13.80
2023-03-30T11:20:53.594Z,13.80
2023-03-30T11:23:28.776Z,13.80
2023-03-30T11:26:02.543Z,13.80
2023-03-30T11:28:47.880Z,13.70
2023-03-30T11:31:31.949Z,13.60
2023-03-30T11:34:06.586Z,13.80
2023-03-30T11:36:43.596Z,13.90
2023-03-30T11:39:31.128Z,14.00
2023-03-30T11:42:09.305Z,14.20
2023-03-30T11:44:38.179Z,14.20
2023-03-30T11:47:33.731Z,14.40
2023-03-30T11:50:18.418Z,14.40
2023-03-30T11:52:59.409Z,14.50
2023-03-30T11:55:43.227Z,14.80
2023-03-30T11:58:23.264Z,15.10
2023-03-30T12:01:10.222Z,15.40
2023-03-30T12:03:43.045Z,15.60
2023-03-30T12:06:28.455Z,15.70
2023-03-30T12:09:24.672Z,15.80
2023-03-30T12:11:57.724Z,15.80
2023-03-30T12:14:52.801Z,15.80
2023-03-30T12:17:53.667Z,15.90
2023-03-30T12:20:38.871Z,16.00
2023-03-30T12:23:21.273Z,16.10
2023-03-30T12:26:17.305Z,16.20
2023-03-30T12:29:05.056Z,16.00
2023-03-30T12:31:51.435Z,16.00
2023-03-30T12:34:20.986Z,15.90
2023-03-30T12:36:51.094Z,15.70
2023-03-30T12:39:26.406Z,15.70
2023-03-30T12:42:04.376Z,15.60
2023-03-30T12:44:49.557Z,15.60
2023-03-30T12:47:45.775Z,15.60
2023-03-30T12:50:27.740Z,15.50
2023-03-30T12:53:12.785Z,15.30
2023-03-30T12:55:48.240Z,15.20
2023-03-30T12:58:45.152Z,15.00
2023-03-30T13:01:29.300Z,14.80
2023-03-30T13:04:03.184Z,14.70
2023-03-30T13:06:34.683Z,14.50
2023-03-30T13:09:35.424Z,14.30
2023-03-30T13:12:32.250Z,14.20
2023-03-30T13:15:03.483Z,14.00
2023-03-30T13:17:51.977Z,13.90
2023-03-30T13:20:30.739Z,13.80
2023-03-30T13:23:09.480Z,13.70
2023-03-30T13:25:49.642Z,13.60
2023-03-30T13:28:48.888Z,13.60
2023-03-30T13:31:32.200Z,13.50
2023-03-30T13:34:10.538Z,13.40
2023-03-30T13:36:47.531Z,13.40
2023-03-30T13:39:18.938Z,13.30
2023-03-30T13:42:00.520Z,13.30
2023-03-30T13:44:42.580Z,13.30
2023-03-30T13:47:27.402Z,13.30
2023-03-30T13:50:01.263Z,13.30
2023-03-30T13:52:33.236Z,13.30
2023-03-30T13:55:04.287Z,13.30
2023-03-30T13:57:36.778Z,13.30
2023-03-30T14:00:09.428Z,13.40
2023-03-30T14:02:41.597Z,13.40
2023-03-30T14:05:15.379Z,13.50
2023-03-30T14:07:47.539Z,13.50
2023-03-30T14:10:17.948Z,13.60
2023-03-30T14:13:14.742Z,13.70
2023-03-30T14:15:47.345Z,13.80
2023-03-30T14:18:23.833Z,13.90
2023-03-30T14:20:58.262Z,13.80
2023-03-30T14:23:35.021Z,13.70
2023-03-30T14:26:05.290Z,13.70
2023-03-30T14:28:38.457Z,13.80
2023-03-30T14:31:15.969Z,13.80
2023-03-30T14:33:44.711Z,13.80
2023-03-30T14:36:16.492Z,13.80
2023-03-30T14:38:48.109Z,13.70
2023-03-30T14:41:19.537Z,13.70
2023-03-30T14:43:57.296Z,13.70
2023-03-30T14:46:29.285Z,13.70
2023-03-30T14:48:58.732Z,13.60
2023-03-30T14:51:28.557Z,13.50
2023-03-30T14:53:57.713Z,13.50
2023-03-30T14:56:28.317Z,13.40
2023-03-30T14:58:58.592Z,13.30
2023-03-30T15:01:31.559Z,13.30
2023-03-30T15:04:03.294Z,13.30
2023-03-30T15:06:33.001Z,13.30
2023-03-30T15:09:04.225Z,13.30
2023-03-30T15:11:34.782Z,13.30
2023-03-30T15:14:09.698Z,13.20
2023-03-30T15:16:40.461Z,13.20
2023-03-30T15:19:15.466Z,13.20
2023-03-30T15:21:43.700Z,13.10
2023-03-30T15:24:26.017Z,13.00
2023-03-30T15:26:57.350Z,13.00
2023-03-30T15:29:27.556Z,12.90
2023-03-30T15:32:08.360Z,12.90
2023-03-30T15:34:36.807Z,12.80
2023-03-30T15:37:05.130Z,12.70
2023-03-30T15:39:36.110Z,12.70
2023-03-30T15:42:07.520Z,12.70
2023-03-30T15:44:41.389Z,12.60
2023-03-30T15:47:15.493Z,12.60
2023-03-30T15:49:46.226Z,12.60
2023-03-30T15:52:23.975Z,12.60
2023-03-30T15:54:55.402Z,12.50
2023-03-30T15:57:32.025Z,12.50
2023-03-30T16:00:06.704Z,12.50
2023-03-30T16:02:40.370Z,12.50
2023-03-30T16:05:17.262Z,12.40
2023-03-30T16:07:50.305Z,12.40
2023-03-30T16:10:21.719Z,12.40
2023-03-30T16:12:49.982Z,12.40
2023-03-30T16:15:21.897Z,12.30
2023-03-30T16:17:50.859Z,12.30
2023-03-30T16:20:22.354Z,12.30
2023-03-30T16:22:51.339Z,12.30
2023-03-30T16:25:23.258Z,12.30
2023-03-30T16:27:58.043Z,12.20
2023-03-30T16:30:31.279Z,12.20
2023-03-30T16:32:59.724Z,12.20
2023-03-30T16:35:28.501Z,12.10
2023-03-30T16:37:56.812Z,12.10
2023-03-30T16:40:32.053Z,12.10
2023-03-30T16:43:01.577Z,12.10
2023-03-30T16:45:31.587Z,12.00
2023-03-30T16:48:03.564Z,11.90
2023-03-30T16:50:37.427Z,11.90
2023-03-30T16:53:06.149Z,11.90
2023-03-30T16:55:34.663Z,11.90
2023-03-30T16:58:02.783Z,11.80
2023-03-30T17:00:38.623Z,11.90
2023-03-30T17:03:07.020Z,11.80
2023-03-30T17:05:35.463Z,11.80
2023-03-30T17:08:05.819Z,11.80
2023-03-30T17:10:37.608Z,11.70
2023-03-30T17:13:06.510Z,11.70
2023-03-30T17:15:41.995Z,11.70
2023-03-30T17:18:14.909Z,11.60
2023-03-30T17:20:46.372Z,11.60
2023-03-30T17:23:20.807Z,11.60
2023-03-30T17:25:49.602Z,11.60
2023-03-30T17:28:22.493Z,11.60
2023-03-30T17:30:53.232Z,11.50
2023-03-30T17:33:21.974Z,11.50
2023-03-30T17:35:52.042Z,11.50
2023-03-30T17:38:21.905Z,11.50
2023-03-30T17:40:50.856Z,11.40
2023-03-30T17:43:19.326Z,11.40
2023-03-30T17:45:47.867Z,11.40
2023-03-30T17:48:21.336Z,11.40
2023-03-30T17:50:51.080Z,11.30
2023-03-30T17:53:24.973Z,11.30
2023-03-30T17:55:54.138Z,11.40
2023-03-30T17:58:25.152Z,11.40
2023-03-30T18:00:54.227Z,11.40
2023-03-30T18:03:29.732Z,11.30
2023-03-30T18:05:58.970Z,11.40
2023-03-30T18:08:27.629Z,11.40
2023-03-30T18:11:00.897Z,11.40
2023-03-30T18:13:31.423Z,11.40
2023-03-30T18:16:02.455Z,11.40
2023-03-30T18:18:32.671Z,11.50
2023-03-30T18:21:04.562Z,11.40
2023-03-30T18:23:34.675Z,11.40
2023-03-30T18:26:07.670Z,11.50
2023-03-30T18:28:40.535Z,11.50
2023-03-30T18:31:09.070Z,11.40
2023-03-30T18:33:40.325Z,11.40
2023-03-30T18:36:13.637Z,11.40
2023-03-30T18:38:42.819Z,11.40
2023-03-30T18:41:12.448Z,11.40
2023-03-30T18:43:41.438Z,11.40
2023-03-30T18:46:15.048Z,11.40
2023-03-30T18:48:45.724Z,11.40
2023-03-30T18:51:14.000Z,11.40
2023-03-30T18:53:42.618Z,11.40
2023-03-30T18:56:13.728Z,11.40
2023-03-30T18:58:43.953Z,11.40
2023-03-30T19:01:15.847Z,11.40
2023-03-30T19:03:45.942Z,11.40
2023-03-30T19:06:18.625Z,11.40
2023-03-30T19:08:47.064Z,11.40
2023-03-30T19:11:18.054Z,11.30
2023-03-30T19:13:47.202Z,11.30
2023-03-30T19:16:16.982Z,11.20
2023-03-30T19:18:46.693Z,11.20
2023-03-30T19:21:16.945Z,11.20
2023-03-30T19:23:45.407Z,11.20
2023-03-30T19:26:14.098Z,11.20
2023-03-30T19:28:42.261Z,11.10
2023-03-30T19:31:15.684Z,11.10
2023-03-30T19:33:44.529Z,11.20
2023-03-30T19:36:14.224Z,11.20
2023-03-30T19:38:44.027Z,11.10
2023-03-30T19:41:12.542Z,11.20
2023-03-30T19:43:40.825Z,11.10
2023-03-30T19:46:09.817Z,11.20
2023-03-30T19:48:37.951Z,11.10
2023-03-30T19:51:06.645Z,11.10
2023-03-30T19:53:37.494Z,11.10
2023-03-30T19:56:11.529Z,11.10
2023-03-30T19:58:39.776Z,11.10
2023-03-30T20:01:08.711Z,11.10
2023-03-30T20:03:37.158Z,11.10
2023-03-30T20:06:12.604Z,11.10
2023-03-30T20:08:43.386Z,11.10
2023-03-30T20:11:12.545Z,11.10
2023-03-30T20:13:45.480Z,11.10
2023-03-30T20:16:20.439Z,11.00
2023-03-30T20:18:50.731Z,11.10
2023-03-30T20:21:19.369Z,11.00
2023-03-30T20:23:49.151Z,11.00
2023-03-30T20:26:19.412Z,11.10
2023-03-30T20:28:48.804Z,11.10
2023-03-30T20:31:17.616Z,11.10
2023-03-30T20:33:45.841Z,11.10
2023-03-30T20:36:18.483Z,11.10
2023-03-30T20:38:48.451Z,11.00
2023-03-30T20:41:17.830Z,11.10
2023-03-30T20:43:56.958Z,11.00
2023-03-30T20:46:36.472Z,11.00
2023-03-30T20:49:05.102Z,11.00
2023-03-30T20:51:33.532Z,11.00
2023-03-30T20:54:03.192Z,11.00
2023-03-30T20:56:36.556Z,11.00
2023-03-30T20:59:05.477Z,11.00
2023-03-30T21:01:34.248Z,10.90
2023-03-30T21:04:04.065Z,10.90
2023-03-30T21:06:36.543Z,10.90
2023-03-30T21:09:08.467Z,10.80
2023-03-30T21:11:39.500Z,10.80
2023-03-30T21:14:09.280Z,10.80
2023-03-30T21:16:39.526Z,10.80
2023-03-30T21:19:08.503Z,10.90
2023-03-30T21:21:37.795Z,10.90
2023-03-30T21:24:09.966Z,10.80
2023-03-30T21:26:38.350Z,10.90
2023-03-30T21:29:06.901Z,10.80
2023-03-30T21:31:36.570Z,10.90
2023-03-30T21:34:04.717Z,10.90
2023-03-30T21:36:34.574Z,10.90
2023-03-30T21:39:07.079Z,10.80
2023-03-30T21:41:37.533Z,10.80
2023-03-30T21:44:05.957Z,10.80
2023-03-30T21:46:34.155Z,10.90
2023-03-30T21:49:03.540Z,10.90
2023-03-30T21:51:32.589Z,10.90
2023-03-30T21:54:02.218Z,10.90
2023-03-30T21:56:31.932Z,10.90
2023-03-30T21:59:02.028Z,10.90
2023-03-30T22:01:30.355Z,10.90
2023-03-30T22:04:06.055Z,10.90
2023-03-30T22:06:35.509Z,10.80
2023-03-30T22:09:03.787Z,10.80
2023-03-30T22:11:31.908Z,10.80
2023-03-30T22:14:05.515Z,10.90
2023-03-30T22:16:35.515Z,10.90
2023-03-30T22:19:04.335Z,10.90
2023-03-30T22:21:39.611Z,10.90
2023-03-30T22:24:08.886Z,10.90
2023-03-30T22:26:37.507Z,10.90
2023-03-30T22:29:07.460Z,10.90
2023-03-30T22:31:41.842Z,10.90
2023-03-30T22:34:09.988Z,10.90
2023-03-30T22:36:38.134Z,10.90
2023-03-30T22:39:06.943Z,10.80
2023-03-30T22:41:35.100Z,10.90
2023-03-30T22:44:04.528Z,10.80
2023-03-30T22:46:34.144Z,10.90
2023-03-30T22:49:02.795Z,10.80
2023-03-30T22:51:31.068Z,10.90
2023-03-30T22:54:00.759Z,10.90
2023-03-30T22:56:30.247Z,10.90
2023-03-30T22:58:59.036Z,10.90
2023-03-30T23:01:32.546Z,10.90
2023-03-30T23:04:03.515Z,10.90
2023-03-30T23:06:36.551Z,10.90
2023-03-30T23:09:05.611Z,10.90
2023-03-30T23:11:34.299Z,10.90
2023-03-30T23:14:05.665Z,10.90
2023-03-30T23:16:39.433Z,10.90
2023-03-30T23:19:09.554Z,10.90
2023-03-30T23:21:37.633Z,10.90
2023-03-30T23:24:12.533Z,10.90
2023-03-30T23:26:40.720Z,10.90
2023-03-30T23:29:08.917Z,10.90
2023-03-30T23:31:37.430Z,10.90
2023-03-30T23:34:05.755Z,10.80
2023-03-30T23:36:35.581Z,10.80
2023-03-30T23:39:07.306Z,10.80
2023-03-30T23:41:37.556Z,10.80
2023-03-30T23:44:06.127Z,10.80
2023-03-30T23:46:34.572Z,10.70
2023-03-30T23:49:03.328Z,10.70
2023-03-30T23:51:31.831Z,10.70
2023-03-30T23:54:06.168Z,10.70
2023-03-30T23:56:36.564Z,10.70
2023-03-30T23:59:05.391Z,10.60
